Time;durP1;ratioP1;P1;durP2;ratioP2;P2;SDS_P1;SDS_P2;PMS_P1;PMS_P2;Temp;Humidity;BMP_temperature;BMP_pressure;BME280_temperature;BME280_humidity;BME280_pressure;Samples;Min_cycle;Max_cycle;Signal;HPM_P1;HPM_P2
2023/06/04 00:02:56;;;;;;;;;;;20.80;48.80;;;;;;10365986;28;885;-69
2023/06/04 00:07:51;;;;;;;;;;;20.80;48.90;;;;;;10366449;28;1905;-69
2023/06/04 00:12:47;;;;;;;;;;;20.80;48.80;;;;;;10365846;28;1137;-70
2023/06/04 00:17:42;;;;;;;;;;;20.80;48.80;;;;;;10366948;28;861;-69
2023/06/04 00:22:38;;;;;;;;;;;20.80;48.80;;;;;;10366116;28;908;-70
2023/06/04 00:27:33;;;;;;;;;;;20.80;48.70;;;;;;10366194;28;1964;-70
2023/06/04 00:32:29;;;;;;;;;;;20.80;49.30;;;;;;10369663;28;1128;-69
2023/06/04 00:37:24;;;;;;;;;;;20.80;48.70;;;;;;10373905;28;1292;-70
2023/06/04 00:42:19;;;;;;;;;;;20.80;48.60;;;;;;10374661;28;866;-69
2023/06/04 00:47:15;;;;;;;;;;;20.80;48.60;;;;;;10373747;28;1921;-69
2023/06/04 00:52:10;;;;;;;;;;;20.80;48.70;;;;;;10373578;28;1059;-69
2023/06/04 00:57:07;;;;;;;;;;;20.80;48.70;;;;;;10374896;28;869;-70
2023/06/04 01:02:03;;;;;;;;;;;20.80;48.70;;;;;;10373797;28;849;-69
2023/06/04 01:06:58;;;;;;;;;;;20.70;48.60;;;;;;10373354;28;1969;-70
2023/06/04 01:11:54;;;;;;;;;;;20.80;49.30;;;;;;10372865;28;842;-70
2023/06/04 01:16:50;;;;;;;;;;;20.80;48.70;;;;;;10372567;28;886;-70
2023/06/04 01:21:45;;;;;;;;;;;20.70;48.60;;;;;;10372504;28;854;-70
2023/06/04 01:26:41;;;;;;;;;;;20.80;48.70;;;;;;10372231;28;1970;-70
2023/06/04 01:31:36;;;;;;;;;;;20.70;48.60;;;;;;10372776;28;969;-70
2023/06/04 01:36:32;;;;;;;;;;;20.70;48.60;;;;;;10371919;28;1282;-70
2023/06/04 01:41:27;;;;;;;;;;;20.70;48.70;;;;;;10371610;28;866;-70
2023/06/04 01:46:23;;;;;;;;;;;20.70;48.70;;;;;;10370282;28;1979;-70
2023/06/04 01:51:18;;;;;;;;;;;20.70;48.70;;;;;;10371386;28;790;-70
2023/06/04 01:56:14;;;;;;;;;;;20.70;48.60;;;;;;10372512;28;868;-70
2023/06/04 02:01:09;;;;;;;;;;;20.70;48.60;;;;;;10370894;28;961;-70
2023/06/04 02:06:08;;;;;;;;;;;20.70;48.70;;;;;;10371019;28;1963;-70
2023/06/04 02:11:03;;;;;;;;;;;20.70;48.60;;;;;;10370545;28;853;-70
2023/06/04 02:15:59;;;;;;;;;;;20.70;48.60;;;;;;10370966;28;878;-70
2023/06/04 02:20:54;;;;;;;;;;;20.60;48.60;;;;;;10370246;28;789;-69
2023/06/04 02:25:50;;;;;;;;;;;20.60;48.60;;;;;;10369904;28;1901;-70
2023/06/04 02:30:46;;;;;;;;;;;20.70;48.60;;;;;;10369837;28;813;-70
2023/06/04 02:35:41;;;;;;;;;;;20.60;48.60;;;;;;10369693;28;1339;-70
2023/06/04 02:40:36;;;;;;;;;;;20.70;48.70;;;;;;10370144;28;931;-70
2023/06/04 02:45:32;;;;;;;;;;;20.70;48.70;;;;;;10369148;28;2051;-69
2023/06/04 02:50:27;;;;;;;;;;;20.70;48.70;;;;;;10368945;28;879;-69
2023/06/04 02:55:22;;;;;;;;;;;20.60;48.70;;;;;;10367930;28;797;-69
2023/06/04 03:00:18;;;;;;;;;;;20.70;48.80;;;;;;10368038;28;928;-69
2023/06/04 03:05:13;;;;;;;;;;;20.60;48.70;;;;;;10368389;28;1909;-70
2023/06/04 03:10:08;;;;;;;;;;;20.60;48.70;;;;;;10368635;28;771;-70
2023/06/04 03:15:04;;;;;;;;;;;20.60;48.70;;;;;;10368069;28;908;-69
2023/06/04 03:20:00;;;;;;;;;;;20.60;48.70;;;;;;10367943;28;869;-70
2023/06/04 03:24:55;;;;;;;;;;;20.60;48.70;;;;;;10367592;28;1968;-69
2023/06/04 03:29:50;;;;;;;;;;;20.60;48.70;;;;;;10368159;28;855;-70
2023/06/04 03:34:46;;;;;;;;;;;20.60;48.60;;;;;;10368038;28;1455;-70
2023/06/04 03:39:41;;;;;;;;;;;20.50;48.60;;;;;;10367312;28;943;-70
2023/06/04 03:44:37;;;;;;;;;;;20.60;48.70;;;;;;10367101;28;1917;-70
2023/06/04 03:49:32;;;;;;;;;;;20.60;48.70;;;;;;10367691;28;797;-70
2023/06/04 03:54:27;;;;;;;;;;;20.50;48.60;;;;;;10367514;28;877;-69
2023/06/04 03:59:23;;;;;;;;;;;20.60;48.70;;;;;;10366748;28;808;-70
2023/06/04 04:04:18;;;;;;;;;;;20.60;48.70;;;;;;10366555;28;1963;-70
2023/06/04 04:09:13;;;;;;;;;;;20.60;48.60;;;;;;10366828;28;844;-69
2023/06/04 04:14:09;;;;;;;;;;;20.60;48.60;;;;;;10365821;28;928;-70
2023/06/04 04:19:07;;;;;;;;;;;20.50;48.60;;;;;;10366380;28;888;-70
2023/06/04 04:24:02;;;;;;;;;;;20.50;48.70;;;;;;10366763;28;1905;-70
2023/06/04 04:28:59;;;;;;;;;;;20.60;48.70;;;;;;10367389;28;849;-69
2023/06/04 04:33:55;;;;;;;;;;;20.60;48.70;;;;;;10366637;28;1191;-70
2023/06/04 04:38:53;;;;;;;;;;;20.60;48.70;;;;;;10366082;28;911;-70
2023/06/04 04:43:49;;;;;;;;;;;20.60;48.80;;;;;;10365727;28;973;-70
2023/06/04 04:48:45;;;;;;;;;;;20.60;48.80;;;;;;10365606;28;1909;-68
2023/06/04 04:53:40;;;;;;;;;;;20.60;48.80;;;;;;10366417;28;963;-70
2023/06/04 04:58:35;;;;;;;;;;;20.60;48.90;;;;;;10365558;28;923;-69
2023/06/04 05:03:31;;;;;;;;;;;20.60;49.00;;;;;;10366232;28;960;-71
2023/06/04 05:08:26;;;;;;;;;;;20.60;48.90;;;;;;10365295;28;1906;-70
2023/06/04 05:13:23;;;;;;;;;;;20.60;48.90;;;;;;10366707;28;870;-69
2023/06/04 05:18:20;;;;;;;;;;;20.60;48.90;;;;;;10366852;28;890;-69
2023/06/04 05:23:15;;;;;;;;;;;20.60;49.10;;;;;;10373085;28;786;-69
2023/06/04 05:28:12;;;;;;;;;;;20.60;49.10;;;;;;10373102;28;1964;-70
2023/06/04 05:33:17;;;;;;;;;;;20.60;49.20;;;;;;10372691;28;945;-70
2023/06/04 05:38:17;;;;;;;;;;;20.60;49.10;;;;;;10373164;28;1156;-70
2023/06/04 05:43:12;;;;;;;;;;;20.60;49.10;;;;;;10371872;28;921;-69
2023/06/04 05:48:08;;;;;;;;;;;20.60;49.20;;;;;;10370871;28;1985;-69
2023/06/04 05:53:03;;;;;;;;;;;20.60;49.30;;;;;;10371283;28;892;-70
2023/06/04 05:57:58;;;;;;;;;;;20.60;49.30;;;;;;10372356;28;888;-69
2023/06/04 06:02:54;;;;;;;;;;;20.60;49.30;;;;;;10371600;28;849;-70
2023/06/04 06:07:49;;;;;;;;;;;20.50;49.30;;;;;;10371337;28;1953;-76
2023/06/04 06:12:45;;;;;;;;;;;20.60;49.40;;;;;;10370505;28;802;-70
2023/06/04 06:17:40;;;;;;;;;;;20.60;49.50;;;;;;10370907;28;1525;-69
2023/06/04 06:22:36;;;;;;;;;;;20.50;49.40;;;;;;10370798;28;889;-68
2023/06/04 06:27:31;;;;;;;;;;;20.60;49.50;;;;;;10370560;28;1910;-71
2023/06/04 06:32:27;;;;;;;;;;;20.60;49.50;;;;;;10367495;28;1046;-70
2023/06/04 06:37:22;;;;;;;;;;;20.60;49.60;;;;;;10368659;28;1289;-70
2023/06/04 06:42:19;;;;;;;;;;;20.60;49.60;;;;;;10368950;28;957;-70
2023/06/04 06:47:14;;;;;;;;;;;20.60;49.70;;;;;;10369643;28;1977;-69
2023/06/04 06:52:09;;;;;;;;;;;20.50;49.60;;;;;;10368488;28;870;-70
2023/06/04 06:57:08;;;;;;;;;;;20.50;49.70;;;;;;10368231;28;906;-70
2023/06/04 07:02:04;;;;;;;;;;;20.50;49.70;;;;;;10368667;28;853;-70
2023/06/04 07:06:59;;;;;;;;;;;20.60;49.70;;;;;;10369469;28;1910;-70
2023/06/04 07:11:55;;;;;;;;;;;20.60;49.80;;;;;;10367755;28;857;-70
2023/06/04 07:16:50;;;;;;;;;;;20.60;49.90;;;;;;10368297;28;869;-69
2023/06/04 07:21:45;;;;;;;;;;;20.50;49.90;;;;;;10367424;28;920;-69
2023/06/04 07:26:41;;;;;;;;;;;20.60;50.00;;;;;;10367650;28;1910;-70
2023/06/04 07:31:36;;;;;;;;;;;20.50;50.00;;;;;;10367898;28;900;-70
2023/06/04 07:36:32;;;;;;;;;;;20.50;50.10;;;;;;10367302;28;1321;-70
2023/06/04 07:41:28;;;;;;;;;;;20.50;50.20;;;;;;10366893;28;778;-69
2023/06/04 07:46:23;;;;;;;;;;;20.50;50.20;;;;;;10366981;28;2032;-69
2023/06/04 07:51:19;;;;;;;;;;;20.50;50.20;;;;;;10366510;28;856;-69
2023/06/04 07:56:15;;;;;;;;;;;20.50;50.30;;;;;;10366893;28;861;-68
2023/06/04 08:01:10;;;;;;;;;;;20.50;50.20;;;;;;10366666;28;847;-69
2023/06/04 08:06:06;;;;;;;;;;;20.40;50.10;;;;;;10367239;28;1979;-68
2023/06/04 08:11:02;;;;;;;;;;;20.40;49.90;;;;;;10365832;28;938;-68
2023/06/04 08:15:57;;;;;;;;;;;20.40;49.80;;;;;;10366377;28;856;-68
2023/06/04 08:20:53;;;;;;;;;;;20.30;49.50;;;;;;10367103;28;802;-73
2023/06/04 08:25:48;;;;;;;;;;;20.40;49.20;;;;;;10329482;28;2018;-74
2023/06/04 08:30:45;;;;;;;;;;;20.40;49.20;;;;;;10324770;28;925;-74
2023/06/04 08:35:40;;;;;;;;;;;20.50;49.20;;;;;;10324325;28;1239;-73
2023/06/04 08:40:35;;;;;;;;;;;20.50;49.30;;;;;;10325336;28;844;-73
2023/06/04 08:45:31;;;;;;;;;;;20.50;49.30;;;;;;10324582;28;1910;-74
2023/06/04 08:50:26;;;;;;;;;;;20.50;49.40;;;;;;10324646;28;804;-74
2023/06/04 08:55:22;;;;;;;;;;;20.40;49.40;;;;;;10330207;28;847;-75
2023/06/04 09:00:18;;;;;;;;;;;20.50;49.50;;;;;;10332093;28;917;-75
2023/06/04 09:05:13;;;;;;;;;;;20.40;49.60;;;;;;10329056;28;1906;-75
2023/06/04 09:10:08;;;;;;;;;;;20.40;49.60;;;;;;10331524;28;972;-75
2023/06/04 09:15:04;;;;;;;;;;;20.50;49.70;;;;;;10331134;28;786;-75
2023/06/04 09:19:59;;;;;;;;;;;20.40;49.70;;;;;;10331472;28;853;-74
2023/06/04 09:24:56;;;;;;;;;;;20.50;49.70;;;;;;10330773;28;1961;-72
2023/06/04 09:29:51;;;;;;;;;;;20.40;49.70;;;;;;10331393;28;858;-68
2023/06/04 09:34:46;;;;;;;;;;;20.40;49.70;;;;;;10330773;28;1354;-68
2023/06/04 09:39:42;;;;;;;;;;;20.40;49.80;;;;;;10330719;28;882;-68
2023/06/04 09:44:37;;;;;;;;;;;20.40;49.80;;;;;;10330626;28;1917;-67
2023/06/04 09:49:32;;;;;;;;;;;20.40;49.90;;;;;;10330969;28;972;-68
2023/06/04 09:54:28;;;;;;;;;;;20.30;49.70;;;;;;10330572;28;954;-68
2023/06/04 09:59:24;;;;;;;;;;;20.30;49.70;;;;;;10330585;28;874;-68
2023/06/04 10:04:19;;;;;;;;;;;20.30;49.70;;;;;;10328774;28;1917;-69
2023/06/04 10:09:15;;;;;;;;;;;20.40;49.70;;;;;;10329620;28;946;-69
2023/06/04 10:14:10;;;;;;;;;;;20.30;49.70;;;;;;10329608;28;849;-69
2023/06/04 10:19:06;;;;;;;;;;;20.30;49.60;;;;;;10329127;28;1134;-69
2023/06/04 10:24:01;;;;;;;;;;;20.30;49.30;;;;;;10328579;28;899;-68
2023/06/04 10:28:57;;;;;;;;;;;20.30;48.90;;;;;;10328093;28;1965;-68
2023/06/04 10:33:52;;;;;;;;;;;20.30;48.90;;;;;;10329434;28;1053;-68
2023/06/04 10:38:47;;;;;;;;;;;20.30;48.90;;;;;;10328575;28;906;-68
2023/06/04 10:43:43;;;;;;;;;;;20.40;49.00;;;;;;10328137;28;846;-74
2023/06/04 10:48:38;;;;;;;;;;;20.30;49.00;;;;;;10327280;28;1951;-70
2023/06/04 10:53:33;;;;;;;;;;;20.40;49.30;;;;;;10327728;28;799;-74
2023/06/04 10:58:29;;;;;;;;;;;20.30;49.30;;;;;;10327771;28;849;-74
2023/06/04 11:03:24;;;;;;;;;;;20.30;49.40;;;;;;10327483;28;858;-74
2023/06/04 11:08:20;;;;;;;;;;;20.40;49.50;;;;;;10327234;28;1963;-73
2023/06/04 11:13:15;;;;;;;;;;;20.40;49.60;;;;;;10326982;28;881;-72
2023/06/04 11:18:11;;;;;;;;;;;20.30;49.60;;;;;;10326105;28;865;-73
2023/06/04 11:23:06;;;;;;;;;;;20.30;49.60;;;;;;10326058;28;995;-72
2023/06/04 11:28:01;;;;;;;;;;;20.40;49.60;;;;;;10325876;28;1965;-72
2023/06/04 11:32:59;;;;;;;;;;;20.40;49.70;;;;;;10326956;28;858;-71
2023/06/04 11:37:55;;;;;;;;;;;20.30;49.70;;;;;;10325587;28;1299;-72
2023/06/04 11:42:50;;;;;;;;;;;20.40;49.70;;;;;;10326075;28;855;-69
2023/06/04 11:47:45;;;;;;;;;;;20.30;49.70;;;;;;10326388;28;1972;-72
2023/06/04 11:52:41;;;;;;;;;;;20.40;49.70;;;;;;10325852;28;846;-73
2023/06/04 11:57:36;;;;;;;;;;;20.30;49.70;;;;;;10325579;28;769;-72
2023/06/04 12:02:31;;;;;;;;;;;20.40;49.80;;;;;;10326208;28;849;-72
2023/06/04 12:07:27;;;;;;;;;;;20.30;49.80;;;;;;10317699;28;1875;-73
2023/06/04 12:12:23;;;;;;;;;;;20.30;49.80;;;;;;10325317;28;866;-72
2023/06/04 12:17:19;;;;;;;;;;;20.30;49.80;;;;;;10325336;28;1621;-72
2023/06/04 12:22:14;;;;;;;;;;;20.30;49.80;;;;;;10325167;28;855;-73
2023/06/04 12:27:11;;;;;;;;;;;20.40;49.80;;;;;;10326755;28;1906;-75
2023/06/04 12:32:09;;;;;;;;;;;20.30;49.80;;;;;;10333405;28;1575;-75
2023/06/04 12:37:06;;;;;;;;;;;20.40;49.90;;;;;;10333428;28;1128;-74
2023/06/04 12:42:01;;;;;;;;;;;20.30;49.90;;;;;;10332926;28;835;-75
2023/06/04 12:46:57;;;;;;;;;;;20.40;49.90;;;;;;10332652;28;1914;-73
2023/06/04 12:51:52;;;;;;;;;;;20.40;49.90;;;;;;10332235;28;904;-73
2023/06/04 12:56:47;;;;;;;;;;;20.40;49.90;;;;;;10331683;28;983;-73
2023/06/04 13:01:43;;;;;;;;;;;20.30;49.80;;;;;;10332746;28;854;-73
2023/06/04 13:06:38;;;;;;;;;;;20.30;49.80;;;;;;10332208;28;1971;-72
2023/06/04 13:11:33;;;;;;;;;;;20.30;49.80;;;;;;10331781;28;862;-73
2023/06/04 13:16:29;;;;;;;;;;;20.40;49.90;;;;;;10332353;28;826;-72
2023/06/04 13:21:24;;;;;;;;;;;20.40;49.90;;;;;;10331419;28;839;-73
2023/06/04 13:26:20;;;;;;;;;;;20.40;50.00;;;;;;10331824;28;1905;-73
2023/06/04 13:31:15;;;;;;;;;;;20.40;49.90;;;;;;10331052;28;853;-72
2023/06/04 13:36:10;;;;;;;;;;;20.40;49.90;;;;;;10331289;28;1263;-73
2023/06/04 13:41:06;;;;;;;;;;;20.40;49.90;;;;;;10330499;28;832;-73
2023/06/04 13:46:01;;;;;;;;;;;20.40;49.90;;;;;;10330427;28;1975;-72
2023/06/04 13:50:56;;;;;;;;;;;20.50;49.80;;;;;;10329778;28;951;-72
2023/06/04 13:55:57;;;;;;;;;;;20.50;49.80;;;;;;10329613;28;844;-72
2023/06/04 14:00:53;;;;;;;;;;;20.50;49.80;;;;;;10330048;28;797;-72
2023/06/04 14:05:48;;;;;;;;;;;20.60;49.80;;;;;;10329249;28;1957;-72
2023/06/04 14:10:44;;;;;;;;;;;20.60;49.70;;;;;;10329628;28;923;-73
2023/06/04 14:15:39;;;;;;;;;;;20.60;49.70;;;;;;10329322;28;890;-73
2023/06/04 14:20:35;;;;;;;;;;;20.60;49.60;;;;;;10329325;28;1634;-73
2023/06/04 14:25:32;;;;;;;;;;;20.70;49.60;;;;;;10329771;28;1969;-73
2023/06/04 14:30:27;;;;;;;;;;;20.70;49.50;;;;;;10329140;28;864;-72
2023/06/04 14:35:23;;;;;;;;;;;20.80;49.60;;;;;;10328157;28;1557;-76
2023/06/04 14:40:18;;;;;;;;;;;20.80;49.60;;;;;;10328986;28;849;-76
2023/06/04 14:45:13;;;;;;;;;;;20.90;49.60;;;;;;10328233;28;1977;-76
2023/06/04 14:50:09;;;;;;;;;;;20.90;49.50;;;;;;10328567;28;782;-76
2023/06/04 14:55:05;;;;;;;;;;;21.00;49.50;;;;;;10328561;28;856;-76
2023/06/04 15:00:01;;;;;;;;;;;21.10;49.40;;;;;;10328196;28;867;-76
2023/06/04 15:04:56;;;;;;;;;;;21.10;49.30;;;;;;10327554;28;1975;-77
2023/06/04 15:09:52;;;;;;;;;;;21.20;49.30;;;;;;10327380;28;862;-71
2023/06/04 15:14:47;;;;;;;;;;;21.20;49.20;;;;;;10327029;28;802;-72
2023/06/04 15:19:42;;;;;;;;;;;21.30;49.10;;;;;;10326300;28;871;-72
2023/06/04 15:24:38;;;;;;;;;;;21.30;49.00;;;;;;10327250;28;1906;-72
2023/06/04 15:29:33;;;;;;;;;;;21.40;48.90;;;;;;10327201;28;813;-72
2023/06/04 15:34:28;;;;;;;;;;;21.40;48.80;;;;;;10326019;28;1108;-72
2023/06/04 15:39:24;;;;;;;;;;;21.50;48.80;;;;;;10326821;28;992;-72
2023/06/04 15:44:19;;;;;;;;;;;21.50;48.60;;;;;;10325478;28;805;-72
2023/06/04 15:49:15;;;;;;;;;;;21.60;48.70;;;;;;10325911;28;1906;-72
2023/06/04 15:54:10;;;;;;;;;;;21.60;48.50;;;;;;10325990;28;848;-72
2023/06/04 15:59:06;;;;;;;;;;;21.70;48.50;;;;;;10326322;28;873;-72
2023/06/04 16:04:01;;;;;;;;;;;21.70;48.50;;;;;;10325167;28;837;-72
2023/06/04 16:08:57;;;;;;;;;;;21.70;48.50;;;;;;10325985;28;1898;-72
2023/06/04 16:13:52;;;;;;;;;;;21.70;48.40;;;;;;10325382;28;772;-72
2023/06/04 16:18:48;;;;;;;;;;;21.80;48.60;;;;;;10325454;28;869;-72
2023/06/04 16:23:44;;;;;;;;;;;21.80;48.50;;;;;;10325147;28;894;-72
2023/06/04 16:28:39;;;;;;;;;;;21.90;48.40;;;;;;10325011;28;1957;-72
2023/06/04 16:33:35;;;;;;;;;;;21.90;48.30;;;;;;10324736;28;1246;-72
2023/06/04 16:38:30;;;;;;;;;;;22.00;48.40;;;;;;10325672;28;810;-72
2023/06/04 16:43:26;;;;;;;;;;;22.00;48.20;;;;;;10324160;28;901;-72
2023/06/04 16:48:21;;;;;;;;;;;22.00;48.20;;;;;;10325244;28;1913;-72
2023/06/04 16:53:17;;;;;;;;;;;22.00;48.20;;;;;;10324679;28;813;-69
2023/06/04 16:58:12;;;;;;;;;;;21.90;48.00;;;;;;10324467;28;933;-68
2023/06/04 17:03:07;;;;;;;;;;;21.60;48.20;;;;;;10324552;28;934;-69
2023/06/04 17:08:03;;;;;;;;;;;21.40;46.90;;;;;;10324317;28;1910;-69
2023/06/04 17:12:59;;;;;;;;;;;21.30;46.60;;;;;;10323699;28;1031;-72
2023/06/04 17:17:59;;;;;;;;;;;21.30;45.90;;;;;;10332066;28;858;-72
2023/06/04 17:22:55;;;;;;;;;;;21.40;46.20;;;;;;10332053;28;806;-72
2023/06/04 17:27:50;;;;;;;;;;;21.40;46.50;;;;;;10331292;28;1898;-72
2023/06/04 17:32:46;;;;;;;;;;;21.40;46.80;;;;;;10331071;28;870;-73
2023/06/04 17:37:41;;;;;;;;;;;21.40;47.00;;;;;;10331152;28;1113;-73
2023/06/04 17:42:38;;;;;;;;;;;21.40;47.20;;;;;;10330678;28;1040;-73
2023/06/04 17:47:34;;;;;;;;;;;21.40;47.40;;;;;;10331064;28;1918;-73
2023/06/04 17:52:30;;;;;;;;;;;21.30;47.50;;;;;;10331025;28;842;-73
2023/06/04 17:57:25;;;;;;;;;;;21.30;47.60;;;;;;10330057;28;778;-73
2023/06/04 18:02:20;;;;;;;;;;;21.30;47.80;;;;;;10329978;28;861;-73
2023/06/04 18:07:16;;;;;;;;;;;21.30;47.90;;;;;;10329702;28;1910;-69
2023/06/04 18:12:11;;;;;;;;;;;21.20;44.30;;;;;;10328537;28;1054;-70
2023/06/04 18:17:07;;;;;;;;;;;21.20;41.00;;;;;;10328082;28;817;-70
2023/06/04 18:22:02;;;;;;;;;;;21.20;42.40;;;;;;10329181;28;890;-70
2023/06/04 18:27:00;;;;;;;;;;;21.20;41.90;;;;;;10328055;28;1910;-69
2023/06/04 18:31:56;;;;;;;;;;;21.20;42.40;;;;;;10329389;28;842;-69
2023/06/04 18:36:56;;;;;;;;;;;21.20;41.80;;;;;;10327285;28;1457;-69
2023/06/04 18:41:52;;;;;;;;;;;21.10;42.30;;;;;;10328374;28;922;-69
2023/06/04 18:46:48;;;;;;;;;;;21.10;42.60;;;;;;10327664;28;1914;-69
2023/06/04 18:51:43;;;;;;;;;;;21.10;42.60;;;;;;10328298;28;849;-69
2023/06/04 18:56:39;;;;;;;;;;;21.10;41.90;;;;;;10328425;28;856;-69
2023/06/04 19:01:34;;;;;;;;;;;21.20;42.60;;;;;;10328301;28;995;-70
2023/06/04 19:06:29;;;;;;;;;;;21.20;42.80;;;;;;10327376;28;1973;-69
2023/06/04 19:11:25;;;;;;;;;;;21.20;43.20;;;;;;10327841;28;853;-70
2023/06/04 19:16:20;;;;;;;;;;;21.20;43.60;;;;;;10327547;28;866;-69
2023/06/04 19:21:16;;;;;;;;;;;21.10;44.20;;;;;;10324298;28;1078;-69
2023/06/04 19:26:11;;;;;;;;;;;20.90;44.80;;;;;;10326442;28;1914;-69
2023/06/04 19:31:07;;;;;;;;;;;20.80;45.10;;;;;;10326031;28;1035;-69
2023/06/04 19:36:02;;;;;;;;;;;20.70;44.90;;;;;;10326318;28;1085;-69
2023/06/04 19:40:58;;;;;;;;;;;20.60;45.20;;;;;;10325530;28;766;-70
2023/06/04 19:45:56;;;;;;;;;;;20.50;45.00;;;;;;10326457;28;1964;-69
2023/06/04 19:50:51;;;;;;;;;;;20.40;45.00;;;;;;10326124;28;770;-68
2023/06/04 19:55:47;;;;;;;;;;;20.30;44.80;;;;;;10326341;28;930;-68
2023/06/04 20:00:43;;;;;;;;;;;20.20;44.90;;;;;;10325457;28;913;-69
2023/06/04 20:05:38;;;;;;;;;;;20.20;45.00;;;;;;10324925;28;1905;-69
2023/06/04 20:10:34;;;;;;;;;;;20.10;44.80;;;;;;10325440;28;921;-69
2023/06/04 20:15:33;;;;;;;;;;;20.00;44.40;;;;;;10325360;28;1533;-69
2023/06/04 20:20:28;;;;;;;;;;;20.00;45.00;;;;;;10324855;28;969;-69
2023/06/04 20:25:23;;;;;;;;;;;20.40;45.20;;;;;;10324639;28;1910;-69
2023/06/04 20:30:19;;;;;;;;;;;20.50;44.60;;;;;;10324750;28;1122;-69
2023/06/04 20:35:14;;;;;;;;;;;20.60;44.80;;;;;;10325191;28;1112;-68
2023/06/04 20:40:10;;;;;;;;;;;20.70;45.00;;;;;;10324732;28;806;-68
2023/06/04 20:45:05;;;;;;;;;;;20.70;45.20;;;;;;10325193;28;1918;-69
2023/06/04 20:50:01;;;;;;;;;;;20.70;45.20;;;;;;10329043;28;1157;-69
2023/06/04 20:54:56;;;;;;;;;;;20.70;45.30;;;;;;10331811;28;845;-68
2023/06/04 20:59:51;;;;;;;;;;;20.70;45.40;;;;;;10332172;28;821;-69
2023/06/04 21:04:47;;;;;;;;;;;20.70;45.50;;;;;;10331928;28;1967;-69
2023/06/04 21:09:42;;;;;;;;;;;20.70;45.60;;;;;;10332469;28;847;-69
2023/06/04 21:14:40;;;;;;;;;;;20.80;45.80;;;;;;10331554;28;855;-69
2023/06/04 21:19:35;;;;;;;;;;;20.80;45.90;;;;;;10351563;28;1024;-69
2023/06/04 21:24:31;;;;;;;;;;;20.80;46.60;;;;;;10373374;28;861;-70
2023/06/04 21:29:26;;;;;;;;;;;20.80;46.20;;;;;;10371934;28;1959;-69
2023/06/04 21:34:21;;;;;;;;;;;20.80;46.50;;;;;;10372191;28;1300;-69
2023/06/04 21:39:17;;;;;;;;;;;20.80;46.60;;;;;;10371485;28;929;-70
2023/06/04 21:44:12;;;;;;;;;;;20.80;46.90;;;;;;10372296;28;817;-67
2023/06/04 21:49:07;;;;;;;;;;;20.80;47.00;;;;;;10372295;28;1973;-69
2023/06/04 21:54:05;;;;;;;;;;;20.80;46.60;;;;;;10372070;28;770;-71
2023/06/04 21:59:00;;;;;;;;;;;20.80;47.00;;;;;;10370854;28;879;-70
2023/06/04 22:03:55;;;;;;;;;;;20.80;47.10;;;;;;10371713;28;766;-70
2023/06/04 22:08:51;;;;;;;;;;;20.80;46.80;;;;;;10370987;28;1947;-71
2023/06/04 22:13:46;;;;;;;;;;;20.80;46.90;;;;;;10370265;28;885;-70
2023/06/04 22:18:41;;;;;;;;;;;20.80;47.50;;;;;;10370655;28;938;-71
2023/06/04 22:23:37;;;;;;;;;;;20.80;46.90;;;;;;10370521;28;885;-70
2023/06/04 22:28:32;;;;;;;;;;;20.80;46.90;;;;;;10371194;28;1901;-70
2023/06/04 22:33:29;;;;;;;;;;;20.80;46.90;;;;;;10371000;28;850;-70
2023/06/04 22:38:24;;;;;;;;;;;20.80;47.00;;;;;;10369714;28;1315;-70
2023/06/04 22:43:20;;;;;;;;;;;20.80;47.00;;;;;;10369684;28;809;-70
2023/06/04 22:48:15;;;;;;;;;;;20.80;47.00;;;;;;10369392;28;1906;-71
2023/06/04 22:53:11;;;;;;;;;;;20.80;47.00;;;;;;10369294;28;885;-70
2023/06/04 22:58:06;;;;;;;;;;;20.70;46.90;;;;;;10369703;28;764;-70
2023/06/04 23:03:01;;;;;;;;;;;20.70;47.00;;;;;;10368222;28;983;-71
2023/06/04 23:07:57;;;;;;;;;;;20.70;46.90;;;;;;10368654;28;1893;-70
2023/06/04 23:12:52;;;;;;;;;;;20.80;47.00;;;;;;10366993;28;845;-71
2023/06/04 23:17:48;;;;;;;;;;;20.80;47.00;;;;;;10368956;28;857;-71
2023/06/04 23:22:43;;;;;;;;;;;20.70;47.00;;;;;;10367835;28;916;-70
2023/06/04 23:27:38;;;;;;;;;;;20.70;47.00;;;;;;10367929;28;1911;-70
2023/06/04 23:32:34;;;;;;;;;;;20.70;47.00;;;;;;10367770;28;1595;-70
2023/06/04 23:37:29;;;;;;;;;;;20.70;47.00;;;;;;10368036;28;1296;-71
2023/06/04 23:42:25;;;;;;;;;;;20.70;47.00;;;;;;10367433;28;957;-70
2023/06/04 23:47:20;;;;;;;;;;;20.70;47.00;;;;;;10367832;28;1981;-71
2023/06/04 23:52:16;;;;;;;;;;;20.70;47.10;;;;;;10367147;28;759;-71
2023/06/04 23:57:11;;;;;;;;;;;20.70;47.10;;;;;;10367631;28;828;-70
